sensor_id;sensor_type;location;lat;lon;timestamp;temperature;humidity
12287;DHT22;6206;53.100;11.098;2023-02-23T00:01:08;10.20;99.90
12287;DHT22;6206;53.100;11.098;2023-02-23T00:03:35;10.10;99.90
12287;DHT22;6206;53.100;11.098;2023-02-23T00:06:03;10.10;99.90
12287;DHT22;6206;53.100;11.098;2023-02-23T00:08:29;10.00;99.90
12287;DHT22;6206;53.100;11.098;2023-02-23T00:10:59;10.10;99.90
12287;DHT22;6206;53.100;11.098;2023-02-23T00:13:26;10.00;99.90
12287;DHT22;6206;53.100;11.098;2023-02-23T00:15:52;10.10;99.90
12287;DHT22;6206;53.100;11.098;2023-02-23T00:18:19;10.10;99.90
12287;DHT22;6206;53.100;11.098;2023-02-23T00:20:53;10.10;99.90
12287;DHT22;6206;53.100;11.098;2023-02-23T00:23:23;10.10;99.90
12287;DHT22;6206;53.100;11.098;2023-02-23T00:25:52;10.00;99.90
12287;DHT22;6206;53.100;11.098;2023-02-23T00:28:18;10.00;99.90
12287;DHT22;6206;53.100;11.098;2023-02-23T00:30:45;9.90;99.90
12287;DHT22;6206;53.100;11.098;2023-02-23T00:33:11;9.90;99.90
12287;DHT22;6206;53.100;11.098;2023-02-23T00:35:38;9.90;99.90
12287;DHT22;6206;53.100;11.098;2023-02-23T00:38:04;9.90;99.90
12287;DHT22;6206;53.100;11.098;2023-02-23T00:40:32;9.90;99.90
12287;DHT22;6206;53.100;11.098;2023-02-23T00:42:59;10.00;99.90
12287;DHT22;6206;53.100;11.098;2023-02-23T00:45:26;10.00;99.90
12287;DHT22;6206;53.100;11.098;2023-02-23T00:47:52;10.00;99.90
12287;DHT22;6206;53.100;11.098;2023-02-23T00:50:19;10.10;99.90
12287;DHT22;6206;53.100;11.098;2023-02-23T00:52:45;10.00;99.90
12287;DHT22;6206;53.100;11.098;2023-02-23T00:55:12;10.00;99.90
12287;DHT22;6206;53.100;11.098;2023-02-23T00:57:40;10.00;99.90
12287;DHT22;6206;53.100;11.098;2023-02-23T01:00:08;10.00;99.90
12287;DHT22;6206;53.100;11.098;2023-02-23T01:02:42;10.00;99.90
12287;DHT22;6206;53.100;11.098;2023-02-23T01:05:09;9.90;99.90
12287;DHT22;6206;53.100;11.098;2023-02-23T01:07:37;9.90;99.90
12287;DHT22;6206;53.100;11.098;2023-02-23T01:10:04;9.80;99.90
12287;DHT22;6206;53.100;11.098;2023-02-23T01:12:45;9.80;99.90
12287;DHT22;6206;53.100;11.098;2023-02-23T01:15:11;9.80;99.90
12287;DHT22;6206;53.100;11.098;2023-02-23T01:17:38;9.80;99.90
12287;DHT22;6206;53.100;11.098;2023-02-23T01:20:05;9.70;99.90
12287;DHT22;6206;53.100;11.098;2023-02-23T01:22:40;9.70;99.90
12287;DHT22;6206;53.100;11.098;2023-02-23T01:25:07;9.70;99.90
12287;DHT22;6206;53.100;11.098;2023-02-23T01:27:34;9.80;99.90
12287;DHT22;6206;53.100;11.098;2023-02-23T01:30:01;9.80;99.90
12287;DHT22;6206;53.100;11.098;2023-02-23T01:32:28;9.80;99.90
12287;DHT22;6206;53.100;11.098;2023-02-23T01:34:54;9.80;99.90
12287;DHT22;6206;53.100;11.098;2023-02-23T01:37:21;9.80;99.90
12287;DHT22;6206;53.100;11.098;2023-02-23T01:39:47;9.70;99.90
12287;DHT22;6206;53.100;11.098;2023-02-23T01:42:14;9.70;99.90
12287;DHT22;6206;53.100;11.098;2023-02-23T01:47:38;9.60;99.90
12287;DHT22;6206;53.100;11.098;2023-02-23T01:50:05;9.60;99.90
12287;DHT22;6206;53.100;11.098;2023-02-23T01:52:32;9.70;99.90
12287;DHT22;6206;53.100;11.098;2023-02-23T01:55:01;9.70;99.90
12287;DHT22;6206;53.100;11.098;2023-02-23T01:57:29;9.70;99.90
12287;DHT22;6206;53.100;11.098;2023-02-23T01:59:55;9.70;99.90
12287;DHT22;6206;53.100;11.098;2023-02-23T02:02:23;9.70;99.90
12287;DHT22;6206;53.100;11.098;2023-02-23T02:04:58;9.70;99.90
12287;DHT22;6206;53.100;11.098;2023-02-23T02:07:26;9.70;99.90
12287;DHT22;6206;53.100;11.098;2023-02-23T02:09:54;9.70;99.90
12287;DHT22;6206;53.100;11.098;2023-02-23T02:12:39;9.70;99.90
12287;DHT22;6206;53.100;11.098;2023-02-23T02:15:08;9.70;99.90
12287;DHT22;6206;53.100;11.098;2023-02-23T02:17:42;9.70;99.90
12287;DHT22;6206;53.100;11.098;2023-02-23T02:23:13;9.70;99.90
12287;DHT22;6206;53.100;11.098;2023-02-23T02:25:53;9.70;99.90
12287;DHT22;6206;53.100;11.098;2023-02-23T02:28:41;9.60;99.90
12287;DHT22;6206;53.100;11.098;2023-02-23T02:31:28;9.60;99.90
12287;DHT22;6206;53.100;11.098;2023-02-23T02:34:12;9.50;99.90
12287;DHT22;6206;53.100;11.098;2023-02-23T02:36:54;9.50;99.90
12287;DHT22;6206;53.100;11.098;2023-02-23T02:39:24;9.50;99.90
12287;DHT22;6206;53.100;11.098;2023-02-23T02:44:27;9.40;99.90
12287;DHT22;6206;53.100;11.098;2023-02-23T02:46:56;9.40;99.90
12287;DHT22;6206;53.100;11.098;2023-02-23T02:49:24;9.40;99.90
12287;DHT22;6206;53.100;11.098;2023-02-23T02:51:57;9.40;99.90
12287;DHT22;6206;53.100;11.098;2023-02-23T02:54:27;9.40;99.90
12287;DHT22;6206;53.100;11.098;2023-02-23T02:56:56;9.40;99.90
12287;DHT22;6206;53.100;11.098;2023-02-23T02:59:24;9.40;99.90
12287;DHT22;6206;53.100;11.098;2023-02-23T03:02:12;9.30;99.90
12287;DHT22;6206;53.100;11.098;2023-02-23T03:04:57;9.30;99.90
12287;DHT22;6206;53.100;11.098;2023-02-23T03:07:44;9.30;99.90
12287;DHT22;6206;53.100;11.098;2023-02-23T03:10:33;9.30;99.90
12287;DHT22;6206;53.100;11.098;2023-02-23T03:13:23;9.20;99.90
12287;DHT22;6206;53.100;11.098;2023-02-23T03:18:58;9.30;99.90
12287;DHT22;6206;53.100;11.098;2023-02-23T03:21:48;9.20;99.90
12287;DHT22;6206;53.100;11.098;2023-02-23T03:24:36;9.30;99.90
12287;DHT22;6206;53.100;11.098;2023-02-23T03:27:25;9.30;99.90
12287;DHT22;6206;53.100;11.098;2023-02-23T03:32:55;9.20;99.90
12287;DHT22;6206;53.100;11.098;2023-02-23T03:35:42;9.20;99.90
12287;DHT22;6206;53.100;11.098;2023-02-23T03:38:28;9.20;99.90
12287;DHT22;6206;53.100;11.098;2023-02-23T03:41:16;9.20;99.90
12287;DHT22;6206;53.100;11.098;2023-02-23T03:44:02;9.10;99.90
12287;DHT22;6206;53.100;11.098;2023-02-23T03:46:48;9.10;99.90
12287;DHT22;6206;53.100;11.098;2023-02-23T03:49:34;9.10;99.90
12287;DHT22;6206;53.100;11.098;2023-02-23T03:52:20;9.10;99.90
12287;DHT22;6206;53.100;11.098;2023-02-23T03:55:08;9.10;99.90
12287;DHT22;6206;53.100;11.098;2023-02-23T03:57:55;9.10;99.90
12287;DHT22;6206;53.100;11.098;2023-02-23T04:00:43;9.10;99.90
12287;DHT22;6206;53.100;11.098;2023-02-23T04:03:27;9.10;99.90
12287;DHT22;6206;53.100;11.098;2023-02-23T04:06:14;9.10;99.90
12287;DHT22;6206;53.100;11.098;2023-02-23T04:09:00;9.10;99.90
12287;DHT22;6206;53.100;11.098;2023-02-23T04:11:45;9.10;99.90
12287;DHT22;6206;53.100;11.098;2023-02-23T04:14:33;9.10;99.90
12287;DHT22;6206;53.100;11.098;2023-02-23T04:17:00;9.10;99.90
12287;DHT22;6206;53.100;11.098;2023-02-23T04:19:26;9.10;99.90
12287;DHT22;6206;53.100;11.098;2023-02-23T04:21:53;9.10;99.90
12287;DHT22;6206;53.100;11.098;2023-02-23T04:24:20;9.10;99.90
12287;DHT22;6206;53.100;11.098;2023-02-23T04:26:46;9.10;99.90
12287;DHT22;6206;53.100;11.098;2023-02-23T04:29:14;9.10;99.90
12287;DHT22;6206;53.100;11.098;2023-02-23T04:31:41;9.10;99.90
12287;DHT22;6206;53.100;11.098;2023-02-23T04:34:08;9.10;99.90
12287;DHT22;6206;53.100;11.098;2023-02-23T04:36:35;9.10;99.90
12287;DHT22;6206;53.100;11.098;2023-02-23T04:39:01;9.00;99.90
12287;DHT22;6206;53.100;11.098;2023-02-23T04:41:28;9.00;99.90
12287;DHT22;6206;53.100;11.098;2023-02-23T04:43:54;9.10;99.90
12287;DHT22;6206;53.100;11.098;2023-02-23T04:46:21;9.10;99.90
12287;DHT22;6206;53.100;11.098;2023-02-23T04:51:15;9.00;99.90
12287;DHT22;6206;53.100;11.098;2023-02-23T04:58:36;9.00;99.90
12287;DHT22;6206;53.100;11.098;2023-02-23T05:01:03;9.00;99.90
12287;DHT22;6206;53.100;11.098;2023-02-23T05:03:29;9.00;99.90
12287;DHT22;6206;53.100;11.098;2023-02-23T05:05:56;9.00;99.90
12287;DHT22;6206;53.100;11.098;2023-02-23T05:08:24;9.10;99.90
12287;DHT22;6206;53.100;11.098;2023-02-23T05:10:50;9.10;99.90
12287;DHT22;6206;53.100;11.098;2023-02-23T05:13:17;9.00;99.90
12287;DHT22;6206;53.100;11.098;2023-02-23T05:18:11;8.90;99.90
12287;DHT22;6206;53.100;11.098;2023-02-23T05:20:40;8.90;99.90
12287;DHT22;6206;53.100;11.098;2023-02-23T05:23:07;8.90;99.90
12287;DHT22;6206;53.100;11.098;2023-02-23T05:25:35;9.00;99.90
12287;DHT22;6206;53.100;11.098;2023-02-23T05:28:03;9.00;99.90
12287;DHT22;6206;53.100;11.098;2023-02-23T05:30:29;8.90;99.90
12287;DHT22;6206;53.100;11.098;2023-02-23T05:32:56;8.90;99.90
12287;DHT22;6206;53.100;11.098;2023-02-23T05:35:22;8.90;99.90
12287;DHT22;6206;53.100;11.098;2023-02-23T05:37:49;8.90;99.90
12287;DHT22;6206;53.100;11.098;2023-02-23T05:40:15;8.90;99.90
12287;DHT22;6206;53.100;11.098;2023-02-23T05:42:43;8.90;99.90
12287;DHT22;6206;53.100;11.098;2023-02-23T05:45:10;8.90;99.90
12287;DHT22;6206;53.100;11.098;2023-02-23T05:47:36;8.80;99.90
12287;DHT22;6206;53.100;11.098;2023-02-23T05:50:03;8.80;99.90
12287;DHT22;6206;53.100;11.098;2023-02-23T05:52:30;8.80;99.90
12287;DHT22;6206;53.100;11.098;2023-02-23T05:54:57;8.80;99.90
12287;DHT22;6206;53.100;11.098;2023-02-23T05:57:23;8.90;99.90
12287;DHT22;6206;53.100;11.098;2023-02-23T05:59:51;8.90;99.90
12287;DHT22;6206;53.100;11.098;2023-02-23T06:02:18;8.90;99.90
12287;DHT22;6206;53.100;11.098;2023-02-23T06:04:44;8.80;99.90
12287;DHT22;6206;53.100;11.098;2023-02-23T06:07:11;8.90;99.90
12287;DHT22;6206;53.100;11.098;2023-02-23T06:09:37;8.90;99.90
12287;DHT22;6206;53.100;11.098;2023-02-23T06:12:05;8.90;99.90
12287;DHT22;6206;53.100;11.098;2023-02-23T06:14:31;8.80;99.90
12287;DHT22;6206;53.100;11.098;2023-02-23T06:17:00;8.80;99.90
12287;DHT22;6206;53.100;11.098;2023-02-23T06:19:27;8.90;99.90
12287;DHT22;6206;53.100;11.098;2023-02-23T06:21:53;8.90;99.90
12287;DHT22;6206;53.100;11.098;2023-02-23T06:24:20;8.90;99.90
12287;DHT22;6206;53.100;11.098;2023-02-23T06:26:47;8.80;99.90
12287;DHT22;6206;53.100;11.098;2023-02-23T06:31:41;8.80;99.90
12287;DHT22;6206;53.100;11.098;2023-02-23T06:34:08;8.80;99.90
12287;DHT22;6206;53.100;11.098;2023-02-23T06:36:35;8.80;99.90
12287;DHT22;6206;53.100;11.098;2023-02-23T06:39:02;8.80;99.90
12287;DHT22;6206;53.100;11.098;2023-02-23T06:41:29;8.70;99.90
12287;DHT22;6206;53.100;11.098;2023-02-23T06:43:56;8.70;99.90
12287;DHT22;6206;53.100;11.098;2023-02-23T06:46:22;8.70;99.90
12287;DHT22;6206;53.100;11.098;2023-02-23T06:48:52;8.80;99.90
12287;DHT22;6206;53.100;11.098;2023-02-23T06:51:21;8.80;99.90
12287;DHT22;6206;53.100;11.098;2023-02-23T06:56:16;8.80;99.90
12287;DHT22;6206;53.100;11.098;2023-02-23T06:58:43;8.90;99.90
12287;DHT22;6206;53.100;11.098;2023-02-23T07:01:09;8.90;99.90
12287;DHT22;6206;53.100;11.098;2023-02-23T07:03:37;8.80;99.90
12287;DHT22;6206;53.100;11.098;2023-02-23T07:06:03;8.80;99.90
12287;DHT22;6206;53.100;11.098;2023-02-23T07:08:31;8.80;99.90
12287;DHT22;6206;53.100;11.098;2023-02-23T07:11:03;8.90;99.90
12287;DHT22;6206;53.100;11.098;2023-02-23T07:13:30;8.90;99.90
12287;DHT22;6206;53.100;11.098;2023-02-23T07:15:57;8.90;99.90
12287;DHT22;6206;53.100;11.098;2023-02-23T07:18:23;8.90;99.90
12287;DHT22;6206;53.100;11.098;2023-02-23T07:20:49;8.90;99.90
12287;DHT22;6206;53.100;11.098;2023-02-23T07:25:45;9.00;99.90
12287;DHT22;6206;53.100;11.098;2023-02-23T07:30:38;9.10;99.90
12287;DHT22;6206;53.100;11.098;2023-02-23T07:33:05;9.00;99.90
12287;DHT22;6206;53.100;11.098;2023-02-23T07:35:31;9.00;99.90
12287;DHT22;6206;53.100;11.098;2023-02-23T07:40:25;9.00;99.90
12287;DHT22;6206;53.100;11.098;2023-02-23T07:42:53;9.10;99.90
12287;DHT22;6206;53.100;11.098;2023-02-23T07:47:49;9.10;99.90
12287;DHT22;6206;53.100;11.098;2023-02-23T07:50:15;9.10;99.90
12287;DHT22;6206;53.100;11.098;2023-02-23T07:55:09;9.00;99.90
12287;DHT22;6206;53.100;11.098;2023-02-23T08:00:05;8.90;99.90
12287;DHT22;6206;53.100;11.098;2023-02-23T08:02:32;9.00;99.90
12287;DHT22;6206;53.100;11.098;2023-02-23T08:04:58;9.00;99.90
12287;DHT22;6206;53.100;11.098;2023-02-23T08:07:25;9.00;99.90
12287;DHT22;6206;53.100;11.098;2023-02-23T08:09:51;8.90;99.90
12287;DHT22;6206;53.100;11.098;2023-02-23T08:12:18;9.00;99.90
12287;DHT22;6206;53.100;11.098;2023-02-23T08:17:13;9.10;99.90
12287;DHT22;6206;53.100;11.098;2023-02-23T08:22:06;9.10;99.90
12287;DHT22;6206;53.100;11.098;2023-02-23T08:24:33;9.20;99.90
12287;DHT22;6206;53.100;11.098;2023-02-23T08:27:01;9.20;99.90
12287;DHT22;6206;53.100;11.098;2023-02-23T08:29:28;9.20;99.90
12287;DHT22;6206;53.100;11.098;2023-02-23T08:31:54;9.20;99.90
12287;DHT22;6206;53.100;11.098;2023-02-23T08:36:49;9.30;99.90
12287;DHT22;6206;53.100;11.098;2023-02-23T08:39:16;9.30;99.90
12287;DHT22;6206;53.100;11.098;2023-02-23T08:41:42;9.40;99.90
12287;DHT22;6206;53.100;11.098;2023-02-23T08:44:08;9.40;99.90
12287;DHT22;6206;53.100;11.098;2023-02-23T08:46:35;9.40;99.90
12287;DHT22;6206;53.100;11.098;2023-02-23T08:51:30;9.40;99.90
12287;DHT22;6206;53.100;11.098;2023-02-23T08:56:25;9.50;99.90
12287;DHT22;6206;53.100;11.098;2023-02-23T08:58:53;9.60;99.90
12287;DHT22;6206;53.100;11.098;2023-02-23T09:01:19;9.60;99.90
12287;DHT22;6206;53.100;11.098;2023-02-23T09:03:47;9.60;99.90
12287;DHT22;6206;53.100;11.098;2023-02-23T09:06:15;9.60;99.90
12287;DHT22;6206;53.100;11.098;2023-02-23T09:08:42;9.60;99.90
12287;DHT22;6206;53.100;11.098;2023-02-23T09:11:08;9.60;99.90
12287;DHT22;6206;53.100;11.098;2023-02-23T09:13:36;9.70;99.90
12287;DHT22;6206;53.100;11.098;2023-02-23T09:16:03;9.70;99.90
12287;DHT22;6206;53.100;11.098;2023-02-23T09:18:29;9.70;99.90
12287;DHT22;6206;53.100;11.098;2023-02-23T09:23:26;9.70;99.90
12287;DHT22;6206;53.100;11.098;2023-02-23T09:25:53;9.80;99.90
12287;DHT22;6206;53.100;11.098;2023-02-23T09:28:20;9.80;99.90
12287;DHT22;6206;53.100;11.098;2023-02-23T09:33:14;9.80;99.90
12287;DHT22;6206;53.100;11.098;2023-02-23T09:35:42;9.90;99.90
12287;DHT22;6206;53.100;11.098;2023-02-23T09:40:36;10.00;99.90
12287;DHT22;6206;53.100;11.098;2023-02-23T09:43:10;10.00;99.90
12287;DHT22;6206;53.100;11.098;2023-02-23T09:45:38;10.10;99.90
12287;DHT22;6206;53.100;11.098;2023-02-23T09:48:08;10.10;99.90
12287;DHT22;6206;53.100;11.098;2023-02-23T09:50:37;10.10;99.90
12287;DHT22;6206;53.100;11.098;2023-02-23T09:53:06;10.10;99.90
12287;DHT22;6206;53.100;11.098;2023-02-23T09:55:35;10.10;99.90
12287;DHT22;6206;53.100;11.098;2023-02-23T10:00:30;10.10;99.90
12287;DHT22;6206;53.100;11.098;2023-02-23T10:03:05;10.20;99.90
12287;DHT22;6206;53.100;11.098;2023-02-23T10:10:34;10.30;99.90
12287;DHT22;6206;53.100;11.098;2023-02-23T10:13:05;10.30;99.90
12287;DHT22;6206;53.100;11.098;2023-02-23T10:20:29;10.40;99.90
12287;DHT22;6206;53.100;11.098;2023-02-23T10:23:00;10.40;99.90
12287;DHT22;6206;53.100;11.098;2023-02-23T10:25:29;10.40;99.90
12287;DHT22;6206;53.100;11.098;2023-02-23T10:27:58;10.40;99.90
12287;DHT22;6206;53.100;11.098;2023-02-23T10:35:21;10.40;99.90
12287;DHT22;6206;53.100;11.098;2023-02-23T10:37:51;10.40;99.90
12287;DHT22;6206;53.100;11.098;2023-02-23T10:40:19;10.50;99.90
12287;DHT22;6206;53.100;11.098;2023-02-23T10:42:47;10.50;99.90
12287;DHT22;6206;53.100;11.098;2023-02-23T10:45:15;10.60;99.90
12287;DHT22;6206;53.100;11.098;2023-02-23T10:47:48;10.70;99.90
12287;DHT22;6206;53.100;11.098;2023-02-23T10:50:15;10.70;99.90
12287;DHT22;6206;53.100;11.098;2023-02-23T10:52:42;10.70;99.90
12287;DHT22;6206;53.100;11.098;2023-02-23T10:55:19;10.60;99.90
12287;DHT22;6206;53.100;11.098;2023-02-23T10:57:47;10.60;99.90
12287;DHT22;6206;53.100;11.098;2023-02-23T11:00:24;10.60;99.90
12287;DHT22;6206;53.100;11.098;2023-02-23T11:02:57;10.50;99.90
12287;DHT22;6206;53.100;11.098;2023-02-23T11:05:26;10.50;99.90
12287;DHT22;6206;53.100;11.098;2023-02-23T11:08:07;10.50;99.90
12287;DHT22;6206;53.100;11.098;2023-02-23T11:10:33;10.60;99.90
12287;DHT22;6206;53.100;11.098;2023-02-23T11:15:29;10.60;99.90
12287;DHT22;6206;53.100;11.098;2023-02-23T11:17:56;10.70;99.90
12287;DHT22;6206;53.100;11.098;2023-02-23T11:20:24;10.80;99.90
12287;DHT22;6206;53.100;11.098;2023-02-23T11:22:53;10.80;99.90
12287;DHT22;6206;53.100;11.098;2023-02-23T11:25:22;10.80;99.90
12287;DHT22;6206;53.100;11.098;2023-02-23T11:27:50;10.80;99.90
12287;DHT22;6206;53.100;11.098;2023-02-23T11:30:18;10.80;99.90
12287;DHT22;6206;53.100;11.098;2023-02-23T11:32:49;10.80;99.90
12287;DHT22;6206;53.100;11.098;2023-02-23T11:35:28;10.90;99.90
12287;DHT22;6206;53.100;11.098;2023-02-23T11:37:55;10.80;99.90
12287;DHT22;6206;53.100;11.098;2023-02-23T11:40:23;10.80;99.90
12287;DHT22;6206;53.100;11.098;2023-02-23T11:45:18;10.90;99.90
12287;DHT22;6206;53.100;11.098;2023-02-23T11:47:45;10.90;99.90
12287;DHT22;6206;53.100;11.098;2023-02-23T11:52:47;10.90;99.90
12287;DHT22;6206;53.100;11.098;2023-02-23T11:55:15;10.90;99.90
12287;DHT22;6206;53.100;11.098;2023-02-23T11:57:43;10.90;99.90
12287;DHT22;6206;53.100;11.098;2023-02-23T12:00:20;10.90;99.90
12287;DHT22;6206;53.100;11.098;2023-02-23T12:02:48;10.90;99.90
12287;DHT22;6206;53.100;11.098;2023-02-23T12:05:16;10.90;99.90
12287;DHT22;6206;53.100;11.098;2023-02-23T12:07:45;11.00;99.90
12287;DHT22;6206;53.100;11.098;2023-02-23T12:10:20;11.00;99.90
12287;DHT22;6206;53.100;11.098;2023-02-23T12:12:50;10.90;99.90
12287;DHT22;6206;53.100;11.098;2023-02-23T12:15:21;10.90;99.90
12287;DHT22;6206;53.100;11.098;2023-02-23T12:17:50;10.90;99.90
12287;DHT22;6206;53.100;11.098;2023-02-23T12:20:19;10.90;99.90
12287;DHT22;6206;53.100;11.098;2023-02-23T12:22:47;11.00;99.90
12287;DHT22;6206;53.100;11.098;2023-02-23T12:25:19;10.90;99.90
12287;DHT22;6206;53.100;11.098;2023-02-23T12:27:50;10.90;99.90
12287;DHT22;6206;53.100;11.098;2023-02-23T12:30:19;10.80;99.90
12287;DHT22;6206;53.100;11.098;2023-02-23T12:32:47;10.80;99.90
12287;DHT22;6206;53.100;11.098;2023-02-23T12:35:17;10.90;99.90
12287;DHT22;6206;53.100;11.098;2023-02-23T12:37:47;10.90;99.90
12287;DHT22;6206;53.100;11.098;2023-02-23T12:40:15;11.00;99.90
12287;DHT22;6206;53.100;11.098;2023-02-23T12:42:50;11.00;99.90
12287;DHT22;6206;53.100;11.098;2023-02-23T12:47:45;11.00;99.90
12287;DHT22;6206;53.100;11.098;2023-02-23T12:50:16;11.10;99.90
12287;DHT22;6206;53.100;11.098;2023-02-23T12:52:47;11.10;99.90
12287;DHT22;6206;53.100;11.098;2023-02-23T12:55:14;11.10;99.90
12287;DHT22;6206;53.100;11.098;2023-02-23T12:57:42;11.20;99.90
12287;DHT22;6206;53.100;11.098;2023-02-23T13:00:34;11.10;99.90
12287;DHT22;6206;53.100;11.098;2023-02-23T13:03:17;11.10;99.90
12287;DHT22;6206;53.100;11.098;2023-02-23T13:05:50;11.00;99.90
12287;DHT22;6206;53.100;11.098;2023-02-23T13:08:21;11.10;99.90
12287;DHT22;6206;53.100;11.098;2023-02-23T13:10:53;11.00;99.90
12287;DHT22;6206;53.100;11.098;2023-02-23T13:13:25;11.00;99.90
12287;DHT22;6206;53.100;11.098;2023-02-23T13:15:59;11.10;99.90
12287;DHT22;6206;53.100;11.098;2023-02-23T13:18:27;11.00;99.90
12287;DHT22;6206;53.100;11.098;2023-02-23T13:20:57;11.00;99.90
12287;DHT22;6206;53.100;11.098;2023-02-23T13:23:27;11.10;99.90
12287;DHT22;6206;53.100;11.098;2023-02-23T13:25:57;11.00;99.90
12287;DHT22;6206;53.100;11.098;2023-02-23T13:28:35;10.90;99.90
12287;DHT22;6206;53.100;11.098;2023-02-23T13:31:05;10.90;99.90
12287;DHT22;6206;53.100;11.098;2023-02-23T13:33:34;10.90;99.90
12287;DHT22;6206;53.100;11.098;2023-02-23T13:36:02;11.00;99.90
12287;DHT22;6206;53.100;11.098;2023-02-23T13:38:30;11.00;99.90
12287;DHT22;6206;53.100;11.098;2023-02-23T13:41:02;11.10;99.90
12287;DHT22;6206;53.100;11.098;2023-02-23T13:43:32;11.00;99.90
12287;DHT22;6206;53.100;11.098;2023-02-23T13:46:04;11.10;99.90
12287;DHT22;6206;53.100;11.098;2023-02-23T13:48:41;11.10;99.90
12287;DHT22;6206;53.100;11.098;2023-02-23T13:51:12;11.20;99.90
12287;DHT22;6206;53.100;11.098;2023-02-23T13:53:40;11.10;99.90
12287;DHT22;6206;53.100;11.098;2023-02-23T13:56:09;11.10;99.90
12287;DHT22;6206;53.100;11.098;2023-02-23T13:58:35;11.10;99.90
12287;DHT22;6206;53.100;11.098;2023-02-23T14:01:05;11.10;99.90
12287;DHT22;6206;53.100;11.098;2023-02-23T14:03:35;11.00;99.90
12287;DHT22;6206;53.100;11.098;2023-02-23T14:06:04;11.00;99.90
12287;DHT22;6206;53.100;11.098;2023-02-23T14:08:33;10.90;99.90
12287;DHT22;6206;53.100;11.098;2023-02-23T14:13:29;10.70;99.90
12287;DHT22;6206;53.100;11.098;2023-02-23T14:16:13;10.70;99.90
12287;DHT22;6206;53.100;11.098;2023-02-23T14:18:52;10.80;99.90
12287;DHT22;6206;53.100;11.098;2023-02-23T14:21:21;10.90;99.90
12287;DHT22;6206;53.100;11.098;2023-02-23T14:23:53;10.90;99.90
12287;DHT22;6206;53.100;11.098;2023-02-23T14:29:08;11.00;99.90
12287;DHT22;6206;53.100;11.098;2023-02-23T14:31:36;10.90;99.90
12287;DHT22;6206;53.100;11.098;2023-02-23T14:34:08;10.90;99.90
12287;DHT22;6206;53.100;11.098;2023-02-23T14:36:35;10.80;99.90
12287;DHT22;6206;53.100;11.098;2023-02-23T14:39:05;10.80;99.90
12287;DHT22;6206;53.100;11.098;2023-02-23T14:41:34;10.80;99.90
12287;DHT22;6206;53.100;11.098;2023-02-23T14:44:04;10.80;99.90
12287;DHT22;6206;53.100;11.098;2023-02-23T14:46:31;10.80;99.90
12287;DHT22;6206;53.100;11.098;2023-02-23T14:49:06;10.80;99.90
12287;DHT22;6206;53.100;11.098;2023-02-23T14:51:37;10.70;99.90
12287;DHT22;6206;53.100;11.098;2023-02-23T14:54:10;10.70;99.90
12287;DHT22;6206;53.100;11.098;2023-02-23T14:59:13;10.80;99.90
12287;DHT22;6206;53.100;11.098;2023-02-23T15:01:42;10.70;99.90
12287;DHT22;6206;53.100;11.098;2023-02-23T15:04:11;10.60;99.90
12287;DHT22;6206;53.100;11.098;2023-02-23T15:06:38;10.50;99.90
12287;DHT22;6206;53.100;11.098;2023-02-23T15:09:06;10.40;99.90
12287;DHT22;6206;53.100;11.098;2023-02-23T15:11:33;10.50;99.90
12287;DHT22;6206;53.100;11.098;2023-02-23T15:14:01;10.40;99.90
12287;DHT22;6206;53.100;11.098;2023-02-23T15:16:29;10.40;99.90
12287;DHT22;6206;53.100;11.098;2023-02-23T15:21:56;10.50;99.90
12287;DHT22;6206;53.100;11.098;2023-02-23T15:24:24;10.50;99.90
12287;DHT22;6206;53.100;11.098;2023-02-23T15:26:52;10.40;99.90
12287;DHT22;6206;53.100;11.098;2023-02-23T15:29:19;10.40;99.90
12287;DHT22;6206;53.100;11.098;2023-02-23T15:31:47;10.50;99.90
12287;DHT22;6206;53.100;11.098;2023-02-23T15:34:17;10.50;99.90
12287;DHT22;6206;53.100;11.098;2023-02-23T15:36:49;10.50;99.90
12287;DHT22;6206;53.100;11.098;2023-02-23T15:39:20;10.40;99.90
12287;DHT22;6206;53.100;11.098;2023-02-23T15:41:47;10.40;99.90
12287;DHT22;6206;53.100;11.098;2023-02-23T15:44:15;10.40;99.90
12287;DHT22;6206;53.100;11.098;2023-02-23T15:46:44;10.40;99.90
12287;DHT22;6206;53.100;11.098;2023-02-23T15:49:13;10.40;99.90
12287;DHT22;6206;53.100;11.098;2023-02-23T15:51:42;10.40;99.90
12287;DHT22;6206;53.100;11.098;2023-02-23T15:56:41;10.40;99.90
12287;DHT22;6206;53.100;11.098;2023-02-23T15:59:12;10.40;99.90
12287;DHT22;6206;53.100;11.098;2023-02-23T16:01:40;10.50;99.90
12287;DHT22;6206;53.100;11.098;2023-02-23T16:04:12;10.40;99.90
12287;DHT22;6206;53.100;11.098;2023-02-23T16:06:47;10.40;99.90
12287;DHT22;6206;53.100;11.098;2023-02-23T16:09:23;10.40;99.90
12287;DHT22;6206;53.100;11.098;2023-02-23T16:11:52;10.40;99.90
12287;DHT22;6206;53.100;11.098;2023-02-23T16:14:20;10.40;99.90
12287;DHT22;6206;53.100;11.098;2023-02-23T16:16:47;10.40;99.90
12287;DHT22;6206;53.100;11.098;2023-02-23T16:19:15;10.40;99.90
12287;DHT22;6206;53.100;11.098;2023-02-23T16:21:42;10.40;99.90
12287;DHT22;6206;53.100;11.098;2023-02-23T16:24:13;10.30;99.90
12287;DHT22;6206;53.100;11.098;2023-02-23T16:26:46;10.20;99.90
12287;DHT22;6206;53.100;11.098;2023-02-23T16:29:20;10.30;99.90
12287;DHT22;6206;53.100;11.098;2023-02-23T16:31:59;10.30;99.90
12287;DHT22;6206;53.100;11.098;2023-02-23T16:34:27;10.30;99.90
12287;DHT22;6206;53.100;11.098;2023-02-23T16:36:55;10.20;99.90
12287;DHT22;6206;53.100;11.098;2023-02-23T16:39:22;10.20;99.90
12287;DHT22;6206;53.100;11.098;2023-02-23T16:41:53;10.20;99.90
12287;DHT22;6206;53.100;11.098;2023-02-23T16:44:21;10.20;99.90
12287;DHT22;6206;53.100;11.098;2023-02-23T16:46:53;10.20;99.90
12287;DHT22;6206;53.100;11.098;2023-02-23T16:56:41;10.30;99.90
12287;DHT22;6206;53.100;11.098;2023-02-23T16:59:09;10.30;99.90
12287;DHT22;6206;53.100;11.098;2023-02-23T17:01:40;10.30;99.90
12287;DHT22;6206;53.100;11.098;2023-02-23T17:04:08;10.20;99.90
12287;DHT22;6206;53.100;11.098;2023-02-23T17:06:36;10.20;99.90
12287;DHT22;6206;53.100;11.098;2023-02-23T17:09:02;10.20;99.90
12287;DHT22;6206;53.100;11.098;2023-02-23T17:11:29;10.20;99.90
12287;DHT22;6206;53.100;11.098;2023-02-23T17:13:56;10.20;99.90
12287;DHT22;6206;53.100;11.098;2023-02-23T17:16:22;10.20;99.90
12287;DHT22;6206;53.100;11.098;2023-02-23T17:18:50;10.10;99.90
12287;DHT22;6206;53.100;11.098;2023-02-23T17:21:17;10.10;99.90
12287;DHT22;6206;53.100;11.098;2023-02-23T17:23:48;10.10;99.90
12287;DHT22;6206;53.100;11.098;2023-02-23T17:26:15;10.10;99.90
12287;DHT22;6206;53.100;11.098;2023-02-23T17:28:43;10.00;99.90
12287;DHT22;6206;53.100;11.098;2023-02-23T17:31:09;10.00;99.90
12287;DHT22;6206;53.100;11.098;2023-02-23T17:33:38;10.10;99.90
12287;DHT22;6206;53.100;11.098;2023-02-23T17:36:07;10.10;99.90
12287;DHT22;6206;53.100;11.098;2023-02-23T17:38:34;10.10;99.90
12287;DHT22;6206;53.100;11.098;2023-02-23T17:41:04;10.20;99.90
12287;DHT22;6206;53.100;11.098;2023-02-23T17:43:32;10.20;99.90
12287;DHT22;6206;53.100;11.098;2023-02-23T17:45:58;10.10;99.90